createdAt,value
2023-03-26T00:01:37.483Z,8.33
2023-03-26T00:04:09.231Z,8.40
2023-03-26T00:06:40.337Z,8.29
2023-03-26T00:09:10.576Z,8.27
2023-03-26T00:11:38.790Z,8.23
2023-03-26T00:14:07.179Z,8.23
2023-03-26T00:16:35.403Z,8.15
2023-03-26T00:19:04.173Z,8.14
2023-03-26T00:21:33.798Z,8.12
2023-03-26T00:24:04.879Z,8.09
2023-03-26T00:26:33.815Z,8.09
2023-03-26T00:29:04.023Z,8.07
2023-03-26T00:31:32.611Z,8.06
2023-03-26T00:34:03.649Z,8.05
2023-03-26T00:36:35.823Z,8.03
2023-03-26T00:39:05.729Z,8.06
2023-03-26T00:41:37.159Z,8.06
2023-03-26T00:44:05.560Z,8.06
2023-03-26T00:46:33.787Z,8.03
2023-03-26T00:49:03.852Z,8.03
2023-03-26T00:51:34.139Z,8.03
2023-03-26T00:54:03.383Z,8.03
2023-03-26T00:56:31.772Z,8.04
2023-03-26T00:59:00.313Z,8.07
2023-03-26T01:01:30.512Z,8.00
2023-03-26T01:04:08.882Z,8.01
2023-03-26T01:06:42.349Z,7.96
2023-03-26T01:09:17.297Z,7.97
2023-03-26T01:11:46.429Z,7.94
2023-03-26T01:14:17.826Z,7.94
2023-03-26T01:16:50.089Z,7.95
2023-03-26T01:19:26.114Z,7.95
2023-03-26T01:21:55.533Z,7.93
2023-03-26T01:24:25.190Z,7.90
2023-03-26T01:27:09.696Z,7.96
2023-03-26T01:29:44.242Z,7.89
2023-03-26T01:32:24.399Z,7.88
2023-03-26T01:35:04.797Z,7.88
2023-03-26T01:37:40.926Z,7.87
2023-03-26T01:40:18.814Z,7.94
2023-03-26T01:42:53.363Z,7.86
2023-03-26T01:45:25.722Z,7.86
2023-03-26T01:47:54.539Z,7.87
2023-03-26T01:50:22.658Z,7.85
2023-03-26T01:52:51.038Z,7.86
2023-03-26T01:55:22.554Z,7.89
2023-03-26T01:58:01.048Z,7.87
2023-03-26T02:00:32.852Z,7.88
2023-03-26T02:03:18.121Z,7.89
2023-03-26T02:05:54.513Z,7.90
2023-03-26T02:08:31.748Z,7.93
2023-03-26T02:11:05.211Z,7.90
2023-03-26T02:13:33.623Z,7.94
2023-03-26T02:16:02.915Z,7.93
2023-03-26T02:18:36.505Z,7.93
2023-03-26T02:21:09.920Z,7.96
2023-03-26T02:23:38.590Z,7.93
2023-03-26T02:26:10.154Z,7.96
2023-03-26T02:28:38.822Z,7.95
2023-03-26T02:31:09.811Z,7.97
2023-03-26T02:33:38.928Z,8.00
2023-03-26T02:36:08.799Z,8.01
2023-03-26T02:38:36.782Z,8.03
2023-03-26T02:41:05.515Z,8.03
2023-03-26T02:43:34.940Z,8.04
2023-03-26T02:46:02.951Z,8.03
2023-03-26T02:48:31.394Z,8.03
2023-03-26T02:50:59.357Z,8.04
2023-03-26T02:53:29.960Z,8.02
2023-03-26T02:55:58.333Z,8.05
2023-03-26T02:58:26.691Z,8.05
2023-03-26T03:00:56.912Z,8.06
2023-03-26T03:03:25.773Z,8.05
2023-03-26T03:05:54.703Z,8.08
2023-03-26T03:08:24.453Z,8.14
2023-03-26T03:11:00.358Z,8.09
2023-03-26T03:13:28.790Z,8.09
2023-03-26T03:15:58.435Z,8.06
2023-03-26T03:18:26.606Z,8.04
2023-03-26T03:20:54.979Z,8.04
2023-03-26T03:23:23.000Z,8.04
2023-03-26T03:25:52.652Z,8.03
2023-03-26T03:28:21.677Z,8.03
2023-03-26T03:30:53.064Z,8.02
2023-03-26T03:33:22.468Z,8.00
2023-03-26T03:35:51.398Z,8.03
2023-03-26T03:38:19.508Z,8.09
2023-03-26T03:40:47.470Z,8.05
2023-03-26T03:43:15.380Z,8.05
2023-03-26T03:45:43.434Z,8.03
2023-03-26T03:48:11.423Z,8.01
2023-03-26T03:50:40.772Z,8.02
2023-03-26T03:53:08.675Z,8.03
2023-03-26T03:55:38.361Z,8.04
2023-03-26T03:58:09.139Z,8.06
2023-03-26T04:00:38.367Z,8.13
2023-03-26T04:03:06.695Z,8.13
2023-03-26T04:05:35.258Z,8.13
2023-03-26T04:08:04.706Z,8.11
2023-03-26T04:10:32.805Z,8.10
2023-03-26T04:13:01.113Z,8.11
2023-03-26T04:15:29.208Z,8.10
2023-03-26T04:17:57.221Z,8.08
2023-03-26T04:20:25.163Z,8.08
2023-03-26T04:22:53.280Z,8.08
2023-03-26T04:25:22.671Z,8.11
2023-03-26T04:27:50.616Z,8.10
2023-03-26T04:30:21.234Z,8.05
2023-03-26T04:32:49.556Z,8.10
2023-03-26T04:35:19.590Z,7.99
2023-03-26T04:37:48.197Z,8.03
2023-03-26T04:40:18.470Z,8.05
2023-03-26T04:42:47.875Z,8.03
2023-03-26T04:45:17.793Z,8.03
2023-03-26T04:47:46.722Z,8.02
2023-03-26T04:50:14.877Z,8.04
2023-03-26T04:52:45.099Z,8.02
2023-03-26T04:55:24.567Z,8.01
2023-03-26T04:57:59.851Z,8.01
2023-03-26T05:00:28.478Z,7.99
2023-03-26T05:02:57.944Z,7.97
2023-03-26T05:05:27.426Z,7.96
2023-03-26T05:07:55.382Z,7.95
2023-03-26T05:10:24.208Z,7.97
2023-03-26T05:12:52.382Z,7.97
2023-03-26T05:15:22.440Z,8.00
2023-03-26T05:17:51.345Z,8.02
2023-03-26T05:20:22.608Z,8.02
2023-03-26T05:22:52.064Z,8.04
2023-03-26T05:25:20.670Z,8.02
2023-03-26T05:27:48.971Z,8.04
2023-03-26T05:30:19.572Z,7.98
2023-03-26T05:32:50.369Z,8.05
2023-03-26T05:35:18.775Z,8.03
2023-03-26T05:37:48.091Z,8.03
2023-03-26T05:40:18.088Z,8.06
2023-03-26T05:42:46.572Z,8.06
2023-03-26T05:45:16.861Z,8.05
2023-03-26T05:47:45.396Z,8.06
2023-03-26T05:50:15.816Z,8.09
2023-03-26T05:52:44.810Z,8.11
2023-03-26T05:55:13.444Z,8.12
2023-03-26T05:57:42.777Z,8.13
2023-03-26T06:00:12.304Z,8.16
2023-03-26T06:02:42.304Z,8.17
2023-03-26T06:05:12.516Z,8.35
2023-03-26T06:07:41.950Z,8.31
2023-03-26T06:10:11.177Z,8.30
2023-03-26T06:12:46.703Z,8.24
2023-03-26T06:15:14.899Z,8.29
2023-03-26T06:17:45.046Z,8.38
2023-03-26T06:20:14.631Z,8.33
2023-03-26T06:22:44.367Z,8.30
2023-03-26T06:25:12.973Z,8.34
2023-03-26T06:27:41.006Z,8.25
2023-03-26T06:30:10.404Z,8.23
2023-03-26T06:32:38.981Z,8.28
2023-03-26T06:35:07.779Z,8.27
2023-03-26T06:37:39.120Z,8.23
2023-03-26T06:40:10.723Z,8.32
2023-03-26T06:43:07.761Z,8.28
2023-03-26T06:45:27.700Z,8.26
2023-03-26T06:47:56.116Z,8.36
2023-03-26T06:50:25.141Z,8.35
2023-03-26T06:52:55.083Z,8.38
2023-03-26T06:55:25.048Z,8.30
2023-03-26T06:57:54.537Z,8.31
2023-03-26T07:00:23.105Z,8.30
2023-03-26T07:02:51.214Z,8.29
2023-03-26T07:05:19.357Z,8.31
2023-03-26T07:07:48.455Z,8.31
2023-03-26T07:10:16.574Z,8.33
2023-03-26T07:12:46.084Z,8.41
2023-03-26T07:15:14.362Z,8.34
2023-03-26T07:17:42.387Z,8.31
2023-03-26T07:20:11.601Z,8.31
2023-03-26T07:22:40.228Z,8.30
2023-03-26T07:25:09.950Z,8.32
2023-03-26T07:27:45.633Z,8.28
2023-03-26T07:30:17.784Z,8.24
2023-03-26T07:32:58.639Z,8.22
2023-03-26T07:35:31.612Z,8.22
2023-03-26T07:38:16.599Z,8.22
2023-03-26T07:40:58.448Z,8.23
2023-03-26T07:43:40.661Z,8.24
2023-03-26T07:46:13.278Z,8.27
2023-03-26T07:48:43.820Z,8.30
2023-03-26T07:51:13.204Z,8.35
2023-03-26T07:53:48.035Z,8.24
2023-03-26T07:56:18.443Z,8.23
2023-03-26T07:58:58.696Z,8.23
2023-03-26T08:01:43.576Z,8.24
2023-03-26T08:04:43.943Z,8.17
2023-03-26T08:07:20.947Z,8.20
2023-03-26T08:10:01.192Z,8.24
2023-03-26T08:12:39.093Z,8.14
2023-03-26T08:15:15.159Z,8.14
2023-03-26T08:17:49.445Z,8.10
2023-03-26T08:20:32.157Z,8.09
2023-03-26T08:23:07.524Z,8.23
2023-03-26T08:25:38.175Z,8.12
2023-03-26T08:28:17.876Z,8.09
2023-03-26T08:30:47.151Z,8.11
2023-03-26T08:33:20.632Z,8.09
2023-03-26T08:35:50.124Z,8.08
2023-03-26T08:38:20.597Z,8.07
2023-03-26T08:41:25.293Z,8.15
2023-03-26T08:44:50.285Z,8.09
2023-03-26T08:47:55.747Z,8.08
2023-03-26T08:51:05.248Z,8.07
2023-03-26T08:54:20.779Z,8.04
2023-03-26T08:57:00.216Z,8.04
2023-03-26T09:00:06.742Z,8.03
2023-03-26T09:03:00.605Z,8.03
2023-03-26T09:05:54.908Z,8.05
2023-03-26T09:09:01.565Z,8.14
2023-03-26T09:12:03.062Z,8.08
2023-03-26T09:15:10.254Z,8.10
2023-03-26T09:18:31.514Z,8.13
2023-03-26T09:21:44.554Z,8.17
2023-03-26T09:24:38.986Z,8.24
2023-03-26T09:27:16.693Z,8.28
2023-03-26T09:30:36.952Z,8.32
2023-03-26T09:33:22.830Z,8.40
2023-03-26T09:35:56.465Z,8.43
2023-03-26T09:38:43.496Z,8.50
2023-03-26T09:41:18.029Z,8.48
2023-03-26T09:44:14.380Z,8.51
2023-03-26T09:46:54.739Z,8.59
2023-03-26T09:49:39.653Z,8.87
2023-03-26T09:52:21.759Z,9.13
2023-03-26T09:55:43.536Z,9.32
2023-03-26T09:58:35.623Z,9.53
2023-03-26T10:01:11.170Z,9.60
2023-03-26T10:03:49.699Z,9.72
2023-03-26T10:06:34.416Z,9.84
2023-03-26T10:09:22.060Z,10.00
2023-03-26T10:12:06.166Z,10.06
2023-03-26T10:14:42.283Z,10.09
2023-03-26T10:17:28.858Z,10.10
2023-03-26T10:20:13.497Z,10.22
2023-03-26T10:22:54.045Z,10.34
2023-03-26T10:25:40.083Z,10.45
2023-03-26T10:28:24.821Z,10.65
2023-03-26T10:31:09.943Z,11.00
2023-03-26T10:33:52.302Z,11.39
2023-03-26T10:36:30.942Z,11.82
2023-03-26T10:39:37.836Z,12.15
2023-03-26T10:42:21.241Z,12.22
2023-03-26T10:45:11.055Z,12.08
2023-03-26T10:48:14.770Z,12.08
2023-03-26T10:50:55.274Z,12.34
2023-03-26T10:53:37.373Z,12.47
2023-03-26T10:56:15.852Z,12.56
2023-03-26T10:58:48.543Z,12.43
2023-03-26T11:01:25.283Z,12.37
2023-03-26T11:03:56.625Z,12.21
2023-03-26T11:06:33.627Z,12.15
2023-03-26T11:09:16.316Z,12.20
2023-03-26T11:11:48.855Z,12.50
2023-03-26T11:14:33.819Z,12.77
2023-03-26T11:17:14.801Z,12.71
2023-03-26T11:20:06.285Z,12.97
2023-03-26T11:22:45.383Z,13.11
2023-03-26T11:25:35.887Z,13.45
2023-03-26T11:28:24.669Z,13.58
2023-03-26T11:31:00.249Z,13.86
2023-03-26T11:33:34.088Z,14.05
2023-03-26T11:36:07.900Z,14.24
2023-03-26T11:38:40.313Z,14.35
2023-03-26T11:41:16.103Z,14.30
2023-03-26T11:43:57.678Z,14.07
2023-03-26T11:46:28.600Z,14.10
2023-03-26T11:48:59.906Z,13.94
2023-03-26T11:51:36.301Z,13.81
2023-03-26T11:54:06.473Z,13.77
2023-03-26T11:56:38.968Z,13.67
2023-03-26T11:59:25.895Z,13.51
2023-03-26T12:01:58.620Z,13.48
2023-03-26T12:04:30.690Z,13.36
2023-03-26T12:07:10.935Z,13.17
2023-03-26T12:09:39.394Z,13.08
2023-03-26T12:12:08.149Z,12.99
2023-03-26T12:14:36.441Z,12.84
2023-03-26T12:17:09.332Z,12.79
2023-03-26T12:19:40.906Z,12.61
2023-03-26T12:22:30.314Z,12.46
2023-03-26T12:25:16.712Z,12.36
2023-03-26T12:27:46.483Z,12.33
2023-03-26T12:30:22.545Z,12.18
2023-03-26T12:32:53.334Z,12.08
2023-03-26T12:35:27.384Z,11.86
2023-03-26T12:38:13.770Z,11.67
2023-03-26T12:40:43.088Z,11.52
2023-03-26T12:44:54.325Z,11.67
2023-03-26T12:47:54.538Z,11.91
2023-03-26T12:49:17.560Z,12.12
2023-03-26T12:51:51.863Z,12.19
2023-03-26T12:54:47.157Z,12.53
2023-03-26T12:57:22.841Z,12.62
2023-03-26T13:00:10.968Z,12.64
2023-03-26T13:03:13.380Z,12.64
2023-03-26T13:05:55.820Z,12.50
2023-03-26T13:08:46.859Z,12.53
2023-03-26T13:11:24.753Z,12.87
2023-03-26T13:14:20.515Z,13.25
2023-03-26T13:16:57.085Z,13.33
2023-03-26T13:19:34.307Z,13.51
2023-03-26T13:22:16.777Z,13.68
2023-03-26T13:24:52.906Z,13.78
2023-03-26T13:27:36.806Z,13.76
2023-03-26T13:30:16.447Z,13.75
2023-03-26T13:32:59.477Z,13.80
2023-03-26T13:35:34.562Z,13.75
2023-03-26T13:38:13.139Z,13.74
2023-03-26T13:40:52.803Z,13.64
2023-03-26T13:43:33.752Z,13.48
2023-03-26T13:46:08.663Z,13.36
2023-03-26T13:48:43.090Z,13.33
2023-03-26T13:51:16.739Z,13.29
2023-03-26T13:53:54.520Z,13.39
2023-03-26T13:56:27.991Z,13.43
2023-03-26T13:59:01.709Z,13.41
2023-03-26T14:01:35.297Z,13.41
2023-03-26T14:04:09.630Z,13.46
2023-03-26T14:06:46.580Z,13.45
2023-03-26T14:09:20.760Z,13.46
2023-03-26T14:11:59.395Z,13.42
2023-03-26T14:14:38.529Z,13.28
2023-03-26T14:17:15.059Z,13.19
2023-03-26T14:20:22.051Z,13.11
2023-03-26T14:23:06.338Z,13.02
2023-03-26T14:25:51.220Z,13.02
2023-03-26T14:28:44.151Z,13.00
2023-03-26T14:31:23.806Z,12.95
2023-03-26T14:34:07.141Z,12.92
2023-03-26T14:37:05.939Z,12.83
2023-03-26T14:39:55.560Z,12.75
2023-03-26T14:42:31.118Z,12.72
2023-03-26T14:45:26.567Z,12.68
2023-03-26T14:48:18.575Z,12.50
2023-03-26T14:51:03.044Z,12.57
2023-03-26T14:53:34.557Z,12.55
2023-03-26T14:56:35.943Z,12.42
2023-03-26T14:59:32.747Z,12.40
2023-03-26T15:02:36.862Z,12.18
2023-03-26T15:05:42.394Z,11.73
2023-03-26T15:08:46.092Z,11.48
2023-03-26T15:11:25.951Z,11.09
2023-03-26T15:14:05.336Z,10.86
2023-03-26T15:17:09.640Z,10.71
2023-03-26T15:20:05.395Z,10.47
2023-03-26T15:23:07.884Z,10.26
2023-03-26T15:26:31.689Z,10.13
2023-03-26T15:29:27.122Z,10.05
2023-03-26T15:32:22.380Z,10.18
2023-03-26T15:35:33.454Z,10.02
2023-03-26T15:38:38.548Z,9.74
2023-03-26T15:41:20.237Z,9.67
2023-03-26T15:44:25.654Z,9.51
2023-03-26T15:47:13.280Z,9.45
2023-03-26T15:49:44.308Z,9.39
2023-03-26T15:52:25.205Z,9.29
2023-03-26T15:55:02.462Z,9.26
2023-03-26T15:57:34.614Z,9.15
2023-03-26T16:00:22.828Z,9.09
2023-03-26T16:03:17.649Z,9.16
2023-03-26T16:06:14.330Z,9.04
2023-03-26T16:08:53.156Z,9.04
2023-03-26T16:11:54.329Z,9.01
2023-03-26T16:14:24.809Z,8.94
2023-03-26T16:16:57.544Z,8.82
2023-03-26T16:19:59.504Z,8.89
2023-03-26T16:22:43.853Z,8.75
2023-03-26T16:25:30.654Z,8.68
2023-03-26T16:28:23.509Z,8.65
2023-03-26T16:31:37.554Z,8.64
2023-03-26T16:34:27.499Z,8.68
2023-03-26T16:36:56.145Z,8.71
2023-03-26T16:39:26.456Z,8.70
2023-03-26T16:42:06.220Z,8.76
2023-03-26T16:44:50.134Z,8.73
2023-03-26T16:47:26.481Z,8.71
2023-03-26T16:50:13.415Z,8.69
2023-03-26T16:52:51.978Z,8.72
2023-03-26T16:55:26.519Z,8.77
2023-03-26T16:57:59.344Z,8.68
2023-03-26T17:00:44.965Z,8.66
2023-03-26T17:03:29.122Z,8.64
2023-03-26T17:06:06.570Z,8.61
2023-03-26T17:08:48.078Z,8.59
2023-03-26T17:11:30.371Z,8.62
2023-03-26T17:14:07.429Z,8.56
2023-03-26T17:16:41.692Z,8.60
2023-03-26T17:19:24.224Z,8.61
2023-03-26T17:22:04.572Z,8.48
2023-03-26T17:24:44.308Z,8.50
2023-03-26T17:27:27.915Z,8.51
2023-03-26T17:30:05.450Z,8.41
2023-03-26T17:32:56.646Z,8.33
2023-03-26T17:35:40.781Z,8.34
2023-03-26T17:38:51.195Z,8.31
2023-03-26T17:41:52.233Z,8.27
2023-03-26T17:44:38.791Z,8.23
2023-03-26T17:47:15.297Z,8.25
2023-03-26T17:49:45.703Z,8.24
2023-03-26T17:52:19.691Z,8.22
2023-03-26T17:54:52.054Z,8.22
2023-03-26T17:57:24.859Z,8.20
2023-03-26T17:59:58.479Z,8.19
2023-03-26T18:02:36.113Z,8.18
2023-03-26T18:05:09.655Z,8.17
2023-03-26T18:08:11.147Z,8.16
2023-03-26T18:11:07.890Z,8.14
2023-03-26T18:14:09.403Z,8.15
2023-03-26T18:16:41.360Z,8.17
2023-03-26T18:19:18.417Z,8.17
2023-03-26T18:21:50.515Z,8.15
2023-03-26T18:24:21.840Z,8.16
2023-03-26T18:26:56.116Z,8.16
2023-03-26T18:29:25.450Z,8.12
2023-03-26T18:32:00.619Z,8.11
2023-03-26T18:34:31.579Z,8.13
2023-03-26T18:37:14.860Z,8.12
2023-03-26T18:39:43.094Z,8.10
2023-03-26T18:42:23.578Z,8.10
2023-03-26T18:44:54.428Z,8.09
2023-03-26T18:47:30.141Z,8.09
2023-03-26T18:49:59.537Z,8.04
2023-03-26T18:52:31.371Z,8.06
2023-03-26T18:55:00.940Z,8.04
2023-03-26T18:57:31.462Z,8.06
2023-03-26T19:00:18.711Z,8.03
2023-03-26T19:02:49.842Z,8.04
2023-03-26T19:05:20.121Z,8.04
2023-03-26T19:07:49.009Z,8.04
2023-03-26T19:10:22.155Z,8.03
2023-03-26T19:12:59.542Z,8.02
2023-03-26T19:15:29.483Z,8.06
2023-03-26T19:18:07.075Z,8.03
2023-03-26T19:20:46.731Z,8.13
2023-03-26T19:23:17.852Z,8.06
2023-03-26T19:25:48.992Z,8.01
2023-03-26T19:28:21.604Z,8.01
2023-03-26T19:30:56.535Z,7.98
2023-03-26T19:33:26.225Z,7.96
2023-03-26T19:36:03.444Z,7.96
2023-03-26T19:38:41.451Z,7.92
2023-03-26T19:41:21.502Z,7.90
2023-03-26T19:43:51.969Z,7.93
2023-03-26T19:46:22.687Z,7.94
2023-03-26T19:48:53.365Z,7.90
2023-03-26T19:51:24.161Z,7.89
2023-03-26T19:53:56.591Z,7.95
2023-03-26T19:56:29.999Z,7.93
2023-03-26T19:58:59.816Z,7.87
2023-03-26T20:01:30.143Z,7.89
2023-03-26T20:04:02.078Z,7.86
2023-03-26T20:06:42.443Z,7.81
2023-03-26T20:09:12.153Z,7.80
2023-03-26T20:11:40.911Z,7.79
2023-03-26T20:14:17.102Z,7.74
2023-03-26T20:16:46.364Z,7.75
2023-03-26T20:19:16.749Z,7.75
2023-03-26T20:21:46.010Z,7.75
2023-03-26T20:24:16.892Z,7.71
2023-03-26T20:26:45.401Z,7.79
2023-03-26T20:29:19.830Z,7.74
2023-03-26T20:31:48.627Z,7.74
2023-03-26T20:34:19.984Z,7.76
2023-03-26T20:36:54.484Z,7.76
2023-03-26T20:39:22.988Z,7.73
2023-03-26T20:41:55.151Z,7.73
2023-03-26T20:44:29.209Z,7.72
2023-03-26T20:46:59.126Z,7.66
2023-03-26T20:49:29.464Z,7.65
2023-03-26T20:51:57.822Z,7.66
2023-03-26T20:54:27.397Z,7.65
2023-03-26T20:56:55.441Z,7.61
2023-03-26T20:59:27.801Z,7.55
2023-03-26T21:01:59.230Z,7.51
2023-03-26T21:04:28.270Z,7.45
2023-03-26T21:07:07.135Z,7.47
2023-03-26T21:09:39.722Z,7.41
2023-03-26T21:12:09.939Z,7.46
2023-03-26T21:14:44.415Z,7.48
2023-03-26T21:17:18.747Z,7.49
2023-03-26T21:19:47.697Z,7.43
2023-03-26T21:22:28.989Z,7.45
2023-03-26T21:25:06.228Z,7.38
2023-03-26T21:27:46.115Z,7.37
2023-03-26T21:30:17.722Z,7.36
2023-03-26T21:32:47.017Z,7.36
2023-03-26T21:35:16.274Z,7.38
2023-03-26T21:37:48.666Z,7.37
2023-03-26T21:40:18.696Z,7.37
2023-03-26T21:42:48.396Z,7.36
2023-03-26T21:45:19.678Z,7.40
2023-03-26T21:47:48.850Z,7.38
2023-03-26T21:50:19.368Z,7.36
2023-03-26T21:52:48.438Z,7.36
2023-03-26T21:55:18.881Z,7.32
2023-03-26T21:58:16.790Z,7.30
2023-03-26T22:00:59.181Z,7.27
2023-03-26T22:03:38.244Z,7.24
2023-03-26T22:06:11.660Z,7.21
2023-03-26T22:08:41.608Z,7.21
2023-03-26T22:11:11.252Z,7.24
2023-03-26T22:13:39.379Z,7.22
2023-03-26T22:16:11.755Z,7.21
2023-03-26T22:18:39.665Z,7.20
2023-03-26T22:21:07.925Z,7.15
2023-03-26T22:23:36.635Z,7.11
2023-03-26T22:26:05.893Z,7.10
2023-03-26T22:28:33.910Z,7.09
2023-03-26T22:31:09.195Z,7.07
2023-03-26T22:33:37.315Z,7.05
2023-03-26T22:36:05.946Z,7.01
2023-03-26T22:38:54.337Z,7.02
2023-03-26T22:41:22.556Z,7.01
2023-03-26T22:43:52.227Z,7.00
2023-03-26T22:46:22.541Z,6.96
2023-03-26T22:48:51.397Z,6.99
2023-03-26T22:51:19.989Z,6.96
2023-03-26T22:53:48.469Z,6.95
2023-03-26T22:56:17.301Z,6.95
2023-03-26T22:58:47.777Z,6.96
2023-03-26T23:01:18.913Z,6.99
2023-03-26T23:03:48.397Z,6.93
2023-03-26T23:06:17.238Z,6.98
2023-03-26T23:08:45.677Z,6.98
2023-03-26T23:11:16.241Z,6.92
2023-03-26T23:13:45.644Z,6.85
2023-03-26T23:16:14.890Z,6.91
2023-03-26T23:18:43.349Z,6.84
2023-03-26T23:21:17.096Z,6.86
2023-03-26T23:23:45.694Z,6.97
2023-03-26T23:26:14.563Z,6.92
2023-03-26T23:28:43.388Z,6.85
2023-03-26T23:31:13.090Z,6.82
2023-03-26T23:33:46.209Z,6.76
2023-03-26T23:36:18.934Z,6.73
2023-03-26T23:38:48.586Z,6.72
2023-03-26T23:41:17.995Z,6.77
2023-03-26T23:43:54.286Z,6.75
2023-03-26T23:46:25.051Z,6.80
2023-03-26T23:48:55.114Z,6.87
2023-03-26T23:51:24.984Z,6.81
2023-03-26T23:53:53.950Z,6.86
2023-03-26T23:56:22.224Z,6.87
2023-03-26T23:58:50.152Z,6.83
